Time;durP1;ratioP1;P1;durP2;ratioP2;P2;SDS_P1;SDS_P2;PMS_P1;PMS_P2;Temp;Humidity;BMP_temperature;BMP_pressure;BME280_temperature;BME280_humidity;BME280_pressure;Samples;Min_cycle;Max_cycle;Signal;HPM_P1;HPM_P2
2022/03/06 00:00:17;;;;;;;31.33;17.25;;;;;;;;;;5010559;28;20083;-65
2022/03/06 00:02:43;;;;;;;27.38;15.18;;;;;;;;;;5010374;28;20079;-65
2022/03/06 00:05:09;;;;;;;24.25;13.82;;;;;;;;;;5010453;28;20026;-65
2022/03/06 00:07:35;;;;;;;22.95;12.95;;;;;;;;;;5009997;28;20040;-65
2022/03/06 00:10:00;;;;;;;20.05;11.63;;;;;;;;;;5008961;28;20497;-65
2022/03/06 00:12:26;;;;;;;21.95;11.63;;;;;;;;;;5010473;28;20466;-66
2022/03/06 00:14:51;;;;;;;19.45;11.45;;;;;;;;;;5010426;28;20033;-65
2022/03/06 00:17:17;;;;;;;18.08;10.85;;;;;;;;;;5010049;28;20037;-65
2022/03/06 00:19:43;;;;;;;18.23;10.70;;;;;;;;;;5010342;28;20022;-65
2022/03/06 00:22:08;;;;;;;17.80;10.60;;;;;;;;;;5010190;28;20414;-65
2022/03/06 00:24:34;;;;;;;17.52;9.93;;;;;;;;;;5010398;28;20421;-65
2022/03/06 00:26:59;;;;;;;18.17;10.57;;;;;;;;;;5010219;28;20018;-64
2022/03/06 00:29:24;;;;;;;20.90;10.35;;;;;;;;;;5010125;28;20026;-65
2022/03/06 00:31:50;;;;;;;18.17;9.65;;;;;;;;;;5010017;28;20030;-65
2022/03/06 00:34:16;;;;;;;17.48;10.10;;;;;;;;;;5010003;28;20042;-65
2022/03/06 00:36:41;;;;;;;20.35;10.48;;;;;;;;;;5009984;28;20030;-65
2022/03/06 00:39:07;;;;;;;17.70;10.38;;;;;;;;;;5010010;28;20022;-64
2022/03/06 00:41:32;;;;;;;18.65;10.75;;;;;;;;;;5010140;28;20085;-65
2022/03/06 00:43:58;;;;;;;16.95;10.10;;;;;;;;;;5010159;28;20022;-65
2022/03/06 00:46:23;;;;;;;18.83;10.65;;;;;;;;;;5010086;28;20030;-65
2022/03/06 00:48:49;;;;;;;22.27;11.52;;;;;;;;;;5009979;28;20419;-65
2022/03/06 00:51:15;;;;;;;17.13;10.38;;;;;;;;;;5010080;28;20466;-65
2022/03/06 00:53:42;;;;;;;20.95;10.73;;;;;;;;;;5009780;28;20034;-68
2022/03/06 00:56:08;;;;;;;18.45;11.45;;;;;;;;;;5009960;28;20049;-65
2022/03/06 00:58:33;;;;;;;17.52;10.63;;;;;;;;;;5009653;28;20033;-65
2022/03/06 01:00:59;;;;;;;20.00;12.10;;;;;;;;;;5010027;28;20109;-65
2022/03/06 01:03:25;;;;;;;23.08;12.23;;;;;;;;;;5009787;28;20096;-65
2022/03/06 01:05:50;;;;;;;19.98;12.15;;;;;;;;;;5010145;28;20474;-65
2022/03/06 01:08:16;;;;;;;21.80;13.93;;;;;;;;;;5009674;28;20168;-65
2022/03/06 01:10:45;;;;;;;21.65;13.80;;;;;;;;;;5010001;28;20034;-65
2022/03/06 01:13:11;;;;;;;22.55;13.60;;;;;;;;;;5009626;28;20075;-65
2022/03/06 01:15:37;;;;;;;23.20;14.18;;;;;;;;;;5009831;28;20030;-65
2022/03/06 01:18:06;;;;;;;26.17;14.00;;;;;;;;;;5009636;28;20041;-64
2022/03/06 01:20:32;;;;;;;26.67;14.13;;;;;;;;;;5011130;28;20034;-65
2022/03/06 01:22:57;;;;;;;24.67;14.05;;;;;;;;;;5013429;28;20091;-65
2022/03/06 01:25:22;;;;;;;24.08;13.82;;;;;;;;;;5013586;28;20543;-65
2022/03/06 01:27:48;;;;;;;25.02;13.55;;;;;;;;;;5012993;28;20097;-65
2022/03/06 01:30:17;;;;;;;24.98;13.98;;;;;;;;;;5013199;28;20034;-65
2022/03/06 01:32:43;;;;;;;25.23;14.18;;;;;;;;;;5013114;28;20026;-65
2022/03/06 01:35:09;;;;;;;25.20;14.35;;;;;;;;;;5013116;28;20151;-65
2022/03/06 01:37:35;;;;;;;25.58;14.02;;;;;;;;;;5013184;28;20044;-65
2022/03/06 01:40:00;;;;;;;25.95;14.50;;;;;;;;;;5013192;28;20385;-65
2022/03/06 01:42:26;;;;;;;24.20;13.63;;;;;;;;;;5013117;28;20588;-65
2022/03/06 01:44:52;;;;;;;22.63;12.88;;;;;;;;;;5013000;28;20061;-65
2022/03/06 01:47:49;;;;;;;22.27;14.20;;;;;;;;;;5012826;28;20026;-65
2022/03/06 01:50:23;;;;;;;25.73;14.27;;;;;;;;;;5012795;28;20038;-65
2022/03/06 01:52:50;;;;;;;24.58;14.27;;;;;;;;;;5012896;28;20465;-65
2022/03/06 01:55:18;;;;;;;26.45;14.35;;;;;;;;;;5013076;28;20034;-65
2022/03/06 01:57:44;;;;;;;23.23;13.82;;;;;;;;;;5012849;28;20050;-65
2022/03/06 02:00:14;;;;;;;25.08;13.13;;;;;;;;;;5012583;28;20445;-65
2022/03/06 02:02:41;;;;;;;20.83;12.65;;;;;;;;;;5012619;28;20018;-65
2022/03/06 02:05:07;;;;;;;24.88;12.68;;;;;;;;;;5012648;28;20586;-65
2022/03/06 02:07:32;;;;;;;23.20;13.23;;;;;;;;;;5012684;28;20030;-65
2022/03/06 02:09:58;;;;;;;22.70;12.82;;;;;;;;;;5012319;28;20025;-65
2022/03/06 02:12:24;;;;;;;21.83;13.13;;;;;;;;;;5012792;28;20041;-65
2022/03/06 02:14:51;;;;;;;20.77;12.60;;;;;;;;;;5012455;28;20498;-66
2022/03/06 02:17:18;;;;;;;21.52;12.07;;;;;;;;;;5012683;28;20076;-66
2022/03/06 02:19:53;;;;;;;20.75;12.77;;;;;;;;;;5012152;28;20068;-65
2022/03/06 02:22:20;;;;;;;20.90;12.70;;;;;;;;;;5012833;28;20036;-65
2022/03/06 02:24:46;;;;;;;19.75;12.35;;;;;;;;;;5011979;28;20034;-65
2022/03/06 02:27:11;;;;;;;22.75;12.90;;;;;;;;;;5012377;28;20034;-65
2022/03/06 02:29:43;;;;;;;21.05;12.80;;;;;;;;;;5011936;28;20044;-65
2022/03/06 02:32:10;;;;;;;22.77;13.00;;;;;;;;;;5011878;28;20037;-65
2022/03/06 02:34:37;;;;;;;23.92;13.77;;;;;;;;;;5011919;28;20049;-65
2022/03/06 02:37:03;;;;;;;20.20;12.80;;;;;;;;;;5012147;28;20055;-65
2022/03/06 02:39:29;;;;;;;21.10;12.95;;;;;;;;;;5011664;28;20041;-65
2022/03/06 02:41:54;;;;;;;23.02;12.55;;;;;;;;;;5012166;28;20160;-65
2022/03/06 02:44:21;;;;;;;21.30;12.60;;;;;;;;;;5011870;28;20030;-65
2022/03/06 02:46:46;;;;;;;24.40;11.93;;;;;;;;;;5012061;28;20029;-65
2022/03/06 02:49:13;;;;;;;20.25;11.82;;;;;;;;;;5011631;28;20022;-65
2022/03/06 02:51:40;;;;;;;19.45;11.73;;;;;;;;;;5011833;28;20030;-65
2022/03/06 02:54:06;;;;;;;20.65;12.38;;;;;;;;;;5011554;28;20469;-65
2022/03/06 02:56:32;;;;;;;25.80;12.13;;;;;;;;;;5011796;28;20413;-65
2022/03/06 02:58:58;;;;;;;22.98;12.85;;;;;;;;;;5011490;28;20018;-65
2022/03/06 03:01:24;;;;;;;23.58;12.85;;;;;;;;;;5011658;28;20025;-65
2022/03/06 03:03:49;;;;;;;19.70;12.40;;;;;;;;;;5011535;28;20026;-65
2022/03/06 03:06:15;;;;;;;23.63;13.00;;;;;;;;;;5011739;28;20041;-65
2022/03/06 03:08:41;;;;;;;22.88;13.38;;;;;;;;;;5011183;28;20529;-65
2022/03/06 03:11:07;;;;;;;24.98;13.25;;;;;;;;;;5011408;28;20029;-65
2022/03/06 03:13:32;;;;;;;24.17;13.15;;;;;;;;;;5011282;28;20026;-65
2022/03/06 03:15:58;;;;;;;24.90;13.43;;;;;;;;;;5011371;28;20025;-65
2022/03/06 03:18:23;;;;;;;21.40;12.57;;;;;;;;;;5011326;28;20536;-65
2022/03/06 03:20:50;;;;;;;24.73;12.18;;;;;;;;;;5011365;28;20030;-65
2022/03/06 03:23:15;;;;;;;22.60;12.77;;;;;;;;;;5011374;28;20053;-65
2022/03/06 03:25:40;;;;;;;24.55;13.45;;;;;;;;;;5011089;28;20052;-65
2022/03/06 03:28:06;;;;;;;25.42;13.32;;;;;;;;;;5011129;28;20033;-65
2022/03/06 03:30:31;;;;;;;21.70;12.90;;;;;;;;;;5010442;28;20026;-65
2022/03/06 03:32:57;;;;;;;25.15;13.70;;;;;;;;;;5011211;28;20018;-64
2022/03/06 03:35:22;;;;;;;26.20;13.20;;;;;;;;;;5010679;28;20045;-64
2022/03/06 03:37:47;;;;;;;28.55;13.85;;;;;;;;;;5011205;28;20506;-64
2022/03/06 03:40:13;;;;;;;26.90;13.50;;;;;;;;;;5010765;28;20474;-64
2022/03/06 03:42:38;;;;;;;26.75;14.15;;;;;;;;;;5010512;28;20022;-64
2022/03/06 03:45:05;;;;;;;28.98;14.75;;;;;;;;;;5010331;28;20079;-64
2022/03/06 03:47:31;;;;;;;24.50;13.30;;;;;;;;;;5010831;28;20509;-64
2022/03/06 03:49:56;;;;;;;25.80;12.98;;;;;;;;;;5010350;28;20026;-65
2022/03/06 03:52:22;;;;;;;23.23;12.98;;;;;;;;;;5010827;28;20022;-65
2022/03/06 03:54:47;;;;;;;21.27;12.30;;;;;;;;;;5010720;28;20018;-64
2022/03/06 03:57:16;;;;;;;24.30;12.85;;;;;;;;;;5010808;28;20026;-66
2022/03/06 03:59:42;;;;;;;23.70;13.35;;;;;;;;;;5010158;28;20485;-65
2022/03/06 04:02:07;;;;;;;23.08;13.05;;;;;;;;;;5010533;28;20095;-65
2022/03/06 04:04:33;;;;;;;25.77;13.43;;;;;;;;;;5010288;28;20025;-66
2022/03/06 04:06:59;;;;;;;27.83;13.70;;;;;;;;;;5010563;28;20029;-65
2022/03/06 04:09:24;;;;;;;20.58;13.05;;;;;;;;;;5010221;28;20045;-65
2022/03/06 04:11:50;;;;;;;26.88;15.30;;;;;;;;;;5010558;28;20038;-65
2022/03/06 04:14:16;;;;;;;25.23;13.70;;;;;;;;;;5010413;28;20441;-65
2022/03/06 04:16:41;;;;;;;23.90;13.85;;;;;;;;;;5010353;28;20483;-65
2022/03/06 04:19:07;;;;;;;24.25;13.73;;;;;;;;;;5010099;28;20041;-65
2022/03/06 04:21:32;;;;;;;25.58;13.10;;;;;;;;;;5010492;28;20038;-65
2022/03/06 04:23:58;;;;;;;23.45;13.98;;;;;;;;;;5010307;28;20057;-64
2022/03/06 04:26:24;;;;;;;24.77;13.40;;;;;;;;;;5010272;28;20033;-65
2022/03/06 04:28:49;;;;;;;25.70;13.57;;;;;;;;;;5010283;28;20537;-65
2022/03/06 04:31:15;;;;;;;27.45;14.00;;;;;;;;;;5010099;28;20030;-65
2022/03/06 04:33:40;;;;;;;25.38;14.75;;;;;;;;;;5010109;28;20045;-65
2022/03/06 04:36:06;;;;;;;27.25;14.30;;;;;;;;;;5010015;28;20026;-65
2022/03/06 04:38:31;;;;;;;26.00;14.05;;;;;;;;;;5010228;28;20026;-65
2022/03/06 04:40:58;;;;;;;26.67;14.52;;;;;;;;;;5009712;28;20053;-65
2022/03/06 04:43:24;;;;;;;24.95;14.77;;;;;;;;;;5010319;28;20018;-65
2022/03/06 04:45:50;;;;;;;25.90;14.77;;;;;;;;;;5010010;28;20517;-65
2022/03/06 04:48:15;;;;;;;26.90;14.95;;;;;;;;;;5010189;28;20068;-65
2022/03/06 04:50:41;;;;;;;25.67;15.27;;;;;;;;;;5009756;28;20038;-65
2022/03/06 04:53:06;;;;;;;27.25;15.60;;;;;;;;;;5010031;28;20117;-65
2022/03/06 04:55:32;;;;;;;25.52;14.85;;;;;;;;;;5012640;28;20109;-65
2022/03/06 04:57:57;;;;;;;26.23;15.57;;;;;;;;;;5014017;28;20391;-64
2022/03/06 05:00:23;;;;;;;25.27;15.18;;;;;;;;;;5013704;28;20030;-64
2022/03/06 05:02:48;;;;;;;25.95;15.95;;;;;;;;;;5014132;28;20025;-65
2022/03/06 05:05:13;;;;;;;25.55;15.23;;;;;;;;;;5013684;28;20034;-64
2022/03/06 05:07:39;;;;;;;27.13;15.60;;;;;;;;;;5013955;28;20036;-64
2022/03/06 05:10:12;;;;;;;29.35;16.17;;;;;;;;;;5013339;28;20033;-64
2022/03/06 05:12:41;;;;;;;26.80;15.55;;;;;;;;;;5013673;28;20483;-64
2022/03/06 05:15:08;;;;;;;26.83;15.75;;;;;;;;;;5013314;28;20026;-65
2022/03/06 05:17:34;;;;;;;29.65;16.58;;;;;;;;;;5013684;28;20021;-64
2022/03/06 05:20:00;;;;;;;39.05;19.33;;;;;;;;;;5013448;28;20029;-65
2022/03/06 05:22:25;;;;;;;41.63;20.17;;;;;;;;;;5013528;28;20022;-64
2022/03/06 05:24:51;;;;;;;33.45;18.50;;;;;;;;;;5013437;28;20113;-65
2022/03/06 05:27:17;;;;;;;61.45;32.58;;;;;;;;;;5013328;28;20057;-65
2022/03/06 05:29:42;;;;;;;62.05;31.15;;;;;;;;;;5012789;28;20103;-65
2022/03/06 05:32:08;;;;;;;63.78;32.28;;;;;;;;;;5013064;28;20100;-64
2022/03/06 05:34:33;;;;;;;32.17;19.00;;;;;;;;;;5013293;28;20072;-64
2022/03/06 05:36:59;;;;;;;32.80;19.45;;;;;;;;;;5013080;28;20042;-64
2022/03/06 05:39:27;;;;;;;31.13;18.50;;;;;;;;;;5013158;28;20509;-64
2022/03/06 05:41:52;;;;;;;34.70;19.30;;;;;;;;;;5013032;28;20506;-64
2022/03/06 05:44:18;;;;;;;27.30;16.55;;;;;;;;;;5013128;28;20022;-65
2022/03/06 05:46:43;;;;;;;27.83;15.38;;;;;;;;;;5012623;28;20037;-65
2022/03/06 05:49:12;;;;;;;26.38;15.57;;;;;;;;;;5012990;28;20030;-65
2022/03/06 05:51:39;;;;;;;31.90;17.25;;;;;;;;;;5012589;28;20037;-65
2022/03/06 05:54:06;;;;;;;29.27;16.30;;;;;;;;;;5013089;28;20021;-65
2022/03/06 05:56:32;;;;;;;31.30;16.40;;;;;;;;;;5012794;28;20501;-65
2022/03/06 05:58:57;;;;;;;27.38;15.43;;;;;;;;;;5012931;28;20025;-65
2022/03/06 06:01:23;;;;;;;27.45;15.65;;;;;;;;;;5012218;28;20021;-64
2022/03/06 06:03:49;;;;;;;25.77;15.55;;;;;;;;;;5012761;28;20018;-64
2022/03/06 06:06:15;;;;;;;26.50;16.05;;;;;;;;;;5011794;28;20018;-65
2022/03/06 06:08:41;;;;;;;26.35;15.27;;;;;;;;;;5012783;28;20029;-64
2022/03/06 06:11:07;;;;;;;26.00;15.13;;;;;;;;;;5012338;28;20082;-64
2022/03/06 06:13:33;;;;;;;28.05;15.70;;;;;;;;;;5012603;28;20105;-65
2022/03/06 06:15:59;;;;;;;26.98;15.48;;;;;;;;;;5012309;28;20029;-64
2022/03/06 06:18:27;;;;;;;27.25;15.88;;;;;;;;;;5014146;28;20025;-65
2022/03/06 06:20:53;;;;;;;29.80;15.38;;;;;;;;;;5012048;28;20056;-64
2022/03/06 06:23:19;;;;;;;29.33;16.35;;;;;;;;;;5012408;28;20026;-65
2022/03/06 06:25:45;;;;;;;28.10;15.48;;;;;;;;;;5012354;28;20045;-64
2022/03/06 06:28:10;;;;;;;28.75;16.25;;;;;;;;;;5012449;28;20117;-65
2022/03/06 06:30:35;;;;;;;25.52;15.30;;;;;;;;;;5011793;28;20034;-64
2022/03/06 06:33:01;;;;;;;23.65;14.35;;;;;;;;;;5012109;28;20021;-64
2022/03/06 06:35:26;;;;;;;29.10;16.35;;;;;;;;;;5012099;28;20033;-65
2022/03/06 06:37:52;;;;;;;27.40;15.50;;;;;;;;;;5011994;28;20101;-64
2022/03/06 06:40:18;;;;;;;28.98;16.38;;;;;;;;;;5012076;28;20020;-64
2022/03/06 06:42:43;;;;;;;27.75;15.75;;;;;;;;;;5012028;28;20029;-65
2022/03/06 06:45:09;;;;;;;25.67;16.25;;;;;;;;;;5012001;28;20409;-65
2022/03/06 06:47:35;;;;;;;28.33;16.08;;;;;;;;;;5012041;28;20101;-64
2022/03/06 06:50:00;;;;;;;30.10;17.40;;;;;;;;;;5011801;28;20061;-64
2022/03/06 06:52:26;;;;;;;28.75;15.98;;;;;;;;;;5011675;28;20476;-64
2022/03/06 06:54:51;;;;;;;28.73;16.67;;;;;;;;;;5011914;28;20026;-64
2022/03/06 06:57:17;;;;;;;28.65;17.13;;;;;;;;;;5011621;28;20478;-64
2022/03/06 06:59:42;;;;;;;28.08;16.60;;;;;;;;;;5011596;28;20113;-65
2022/03/06 07:02:07;;;;;;;27.65;16.35;;;;;;;;;;5011521;28;20036;-64
2022/03/06 07:04:33;;;;;;;27.67;17.25;;;;;;;;;;5011770;28;20101;-65
2022/03/06 07:06:58;;;;;;;30.90;17.33;;;;;;;;;;5011551;28;20022;-64
2022/03/06 07:09:24;;;;;;;28.20;16.92;;;;;;;;;;5011523;28;20026;-64
2022/03/06 07:11:49;;;;;;;28.90;16.33;;;;;;;;;;5011042;28;20046;-64
2022/03/06 07:14:14;;;;;;;33.85;18.25;;;;;;;;;;5011494;28;20053;-65
2022/03/06 07:16:41;;;;;;;34.83;19.20;;;;;;;;;;5011133;28;20108;-65
2022/03/06 07:19:07;;;;;;;30.85;15.73;;;;;;;;;;5010493;28;20025;-65
2022/03/06 07:21:37;;;;;;;27.73;16.48;;;;;;;;;;5011122;28;20022;-64
2022/03/06 07:24:06;;;;;;;28.17;16.58;;;;;;;;;;5011329;28;20561;-64
2022/03/06 07:26:31;;;;;;;32.55;18.15;;;;;;;;;;5011047;28;20033;-65
2022/03/06 07:28:57;;;;;;;29.13;16.48;;;;;;;;;;5013418;28;20026;-64
2022/03/06 07:31:22;;;;;;;27.02;15.95;;;;;;;;;;5020504;28;20032;-64
2022/03/06 07:33:48;;;;;;;31.75;17.98;;;;;;;;;;5020116;28;20109;-65
2022/03/06 07:36:13;;;;;;;33.92;17.25;;;;;;;;;;5020805;28;20040;-64
2022/03/06 07:38:39;;;;;;;29.75;17.30;;;;;;;;;;5020829;28;20103;-65
2022/03/06 07:41:04;;;;;;;30.77;17.95;;;;;;;;;;5020616;28;20056;-65
2022/03/06 07:43:30;;;;;;;32.28;17.42;;;;;;;;;;5021476;28;20022;-64
2022/03/06 07:45:56;;;;;;;31.08;17.45;;;;;;;;;;5019796;28;20014;-64
2022/03/06 07:48:22;;;;;;;28.58;17.27;;;;;;;;;;5019443;28;20030;-64
2022/03/06 07:50:48;;;;;;;30.00;16.98;;;;;;;;;;5019318;28;20041;-64
2022/03/06 07:53:13;;;;;;;36.20;19.67;;;;;;;;;;5019367;28;20093;-64
2022/03/06 07:55:39;;;;;;;30.85;18.50;;;;;;;;;;5019298;28;20045;-64
2022/03/06 07:58:04;;;;;;;31.30;18.40;;;;;;;;;;5019422;28;20030;-65
2022/03/06 08:00:30;;;;;;;31.27;18.13;;;;;;;;;;5019236;28;20075;-64
2022/03/06 08:02:56;;;;;;;30.08;17.58;;;;;;;;;;5019856;28;20022;-64
2022/03/06 08:05:22;;;;;;;30.83;17.75;;;;;;;;;;5021553;28;20037;-62
2022/03/06 08:07:48;;;;;;;30.40;17.08;;;;;;;;;;5020792;28;20097;-65
2022/03/06 08:10:13;;;;;;;28.52;16.55;;;;;;;;;;5021403;28;20060;-67
2022/03/06 08:12:40;;;;;;;30.73;18.15;;;;;;;;;;5020945;28;20093;-65
2022/03/06 08:15:08;;;;;;;33.83;19.23;;;;;;;;;;5020730;28;20029;-65
2022/03/06 08:17:34;;;;;;;36.90;19.25;;;;;;;;;;5020618;28;20022;-65
2022/03/06 08:19:59;;;;;;;35.72;20.08;;;;;;;;;;5020204;28;20036;-65
2022/03/06 08:22:25;;;;;;;36.15;18.02;;;;;;;;;;5020425;28;20022;-65
2022/03/06 08:24:51;;;;;;;30.75;17.20;;;;;;;;;;5020311;28;20021;-64
2022/03/06 08:27:16;;;;;;;27.42;16.65;;;;;;;;;;5020560;28;20025;-64
2022/03/06 08:29:42;;;;;;;31.42;17.50;;;;;;;;;;5020158;28;20037;-64
2022/03/06 08:32:08;;;;;;;46.38;22.02;;;;;;;;;;5019738;28;20022;-66
2022/03/06 08:34:33;;;;;;;36.35;19.88;;;;;;;;;;5020152;28;20038;-65
2022/03/06 08:36:59;;;;;;;34.88;18.73;;;;;;;;;;5020409;28;20029;-65
2022/03/06 08:39:24;;;;;;;34.30;19.45;;;;;;;;;;5021083;28;20029;-65
2022/03/06 08:41:50;;;;;;;34.35;17.73;;;;;;;;;;5020569;28;20053;-65
2022/03/06 08:44:16;;;;;;;30.42;17.83;;;;;;;;;;5019360;28;20089;-66
2022/03/06 08:46:41;;;;;;;28.52;16.85;;;;;;;;;;5020184;28;20243;-65
2022/03/06 08:49:07;;;;;;;34.35;17.25;;;;;;;;;;5020161;28;20068;-66
2022/03/06 08:51:32;;;;;;;30.52;17.75;;;;;;;;;;5020387;28;20318;-65
2022/03/06 08:53:58;;;;;;;36.33;20.15;;;;;;;;;;5020124;28;20093;-65
2022/03/06 08:56:24;;;;;;;32.50;18.42;;;;;;;;;;5020661;28;20021;-65
2022/03/06 08:58:49;;;;;;;41.88;22.50;;;;;;;;;;5019598;28;20029;-66
2022/03/06 09:01:15;;;;;;;38.15;20.42;;;;;;;;;;5026575;28;20033;-65
2022/03/06 09:03:40;;;;;;;35.10;20.45;;;;;;;;;;5037530;28;20030;-64
2022/03/06 09:06:06;;;;;;;31.38;18.67;;;;;;;;;;5013855;28;20109;-66
2022/03/06 09:08:31;;;;;;;33.20;18.30;;;;;;;;;;5018910;28;20017;-66
2022/03/06 09:10:57;;;;;;;34.75;19.38;;;;;;;;;;5019696;28;20041;-64
2022/03/06 09:13:22;;;;;;;34.88;19.40;;;;;;;;;;5019235;28;20050;-65
2022/03/06 09:15:48;;;;;;;35.78;20.40;;;;;;;;;;5020199;28;20056;-65
2022/03/06 09:18:13;;;;;;;36.80;20.08;;;;;;;;;;5019972;28;20385;-65
2022/03/06 09:20:39;;;;;;;33.47;20.05;;;;;;;;;;5020214;28;20036;-66
2022/03/06 09:23:07;;;;;;;41.20;23.65;;;;;;;;;;5019697;28;20241;-66
2022/03/06 09:25:33;;;;;;;42.42;22.33;;;;;;;;;;5019191;28;20030;-67
2022/03/06 09:28:02;;;;;;;42.55;23.40;;;;;;;;;;5019814;28;20048;-65
2022/03/06 09:30:29;;;;;;;42.13;24.10;;;;;;;;;;5019472;28;20084;-65
2022/03/06 09:32:54;;;;;;;43.17;22.65;;;;;;;;;;5019925;28;20022;-66
2022/03/06 09:35:21;;;;;;;40.58;22.27;;;;;;;;;;5027607;28;20048;-65
2022/03/06 09:37:46;;;;;;;40.13;22.13;;;;;;;;;;5019716;28;20237;-66
2022/03/06 09:40:12;;;;;;;33.97;19.27;;;;;;;;;;5020061;28;20045;-66
2022/03/06 09:42:38;;;;;;;37.85;20.40;;;;;;;;;;5022902;28;20025;-66
2022/03/06 09:45:08;;;;;;;32.70;18.50;;;;;;;;;;5023619;28;20326;-67
2022/03/06 09:47:35;;;;;;;31.27;18.23;;;;;;;;;;5022969;28;20061;-66
2022/03/06 09:50:01;;;;;;;34.85;19.75;;;;;;;;;;5022741;28;20330;-65
2022/03/06 09:52:27;;;;;;;33.92;20.25;;;;;;;;;;5023131;28;20030;-65
2022/03/06 09:54:53;;;;;;;30.73;17.35;;;;;;;;;;5022032;28;20106;-66
2022/03/06 09:57:19;;;;;;;34.53;19.60;;;;;;;;;;5021307;28;20494;-66
2022/03/06 09:59:45;;;;;;;29.20;17.77;;;;;;;;;;5021215;28;20288;-67
2022/03/06 10:02:11;;;;;;;33.25;19.70;;;;;;;;;;5023021;28;20030;-66
2022/03/06 10:04:37;;;;;;;36.33;19.88;;;;;;;;;;5022386;28;20053;-66
2022/03/06 10:07:08;;;;;;;34.03;19.63;;;;;;;;;;5022972;28;20024;-66
2022/03/06 10:10:03;;;;;;;32.53;19.05;;;;;;;;;;5026524;28;20028;-66
2022/03/06 10:12:32;;;;;;;38.05;19.42;;;;;;;;;;5017022;28;20041;-66
2022/03/06 10:15:06;;;;;;;36.03;19.98;;;;;;;;;;5022797;28;20321;-66
2022/03/06 10:17:33;;;;;;;36.58;20.27;;;;;;;;;;5010215;28;20306;-66
2022/03/06 10:20:04;;;;;;;34.92;19.38;;;;;;;;;;5022823;28;20105;-66
2022/03/06 10:22:40;;;;;;;32.13;18.33;;;;;;;;;;5022448;28;20026;-67
2022/03/06 10:25:08;;;;;;;37.00;18.92;;;;;;;;;;5022358;28;20056;-66
2022/03/06 10:27:57;;;;;;;33.25;17.92;;;;;;;;;;5022058;28;20089;-67
2022/03/06 10:30:41;;;;;;;26.98;16.55;;;;;;;;;;5022199;28;20135;-66
2022/03/06 10:33:18;;;;;;;28.60;15.55;;;;;;;;;;5022030;28;20032;-65
2022/03/06 10:35:46;;;;;;;26.85;15.98;;;;;;;;;;5022290;28;20042;-66
2022/03/06 10:38:26;;;;;;;26.02;15.43;;;;;;;;;;5021681;28;20057;-65
2022/03/06 10:40:57;;;;;;;26.02;15.95;;;;;;;;;;5020982;28;20044;-65
2022/03/06 10:43:25;;;;;;;31.90;16.50;;;;;;;;;;5021804;28;20030;-65
2022/03/06 10:46:05;;;;;;;24.67;15.05;;;;;;;;;;5022134;28;20221;-65
2022/03/06 10:48:30;;;;;;;27.75;16.10;;;;;;;;;;5022007;28;20041;-66
2022/03/06 10:51:04;;;;;;;23.73;15.13;;;;;;;;;;5020709;28;20042;-66
2022/03/06 10:53:29;;;;;;;38.88;21.23;;;;;;;;;;5019829;28;20033;-66
2022/03/06 10:56:10;;;;;;;38.55;22.40;;;;;;;;;;5020427;28;20029;-65
2022/03/06 10:58:37;;;;;;;;;;;;;;;;;;5020774;28;20034;-65
2022/03/06 11:01:03;;;;;;;29.02;15.20;;;;;;;;;;5014335;28;19913;-65
2022/03/06 11:03:32;;;;;;;28.73;15.45;;;;;;;;;;5009763;28;20437;-64
2022/03/06 11:05:59;;;;;;;33.33;15.25;;;;;;;;;;5008746;28;20022;-65
2022/03/06 11:08:25;;;;;;;21.95;13.55;;;;;;;;;;5010792;28;20501;-65
2022/03/06 11:10:51;;;;;;;23.60;13.57;;;;;;;;;;5011134;28;20061;-66
2022/03/06 11:13:17;;;;;;;22.52;13.50;;;;;;;;;;5011132;28;20057;-66
2022/03/06 11:15:42;;;;;;;21.73;13.50;;;;;;;;;;5011095;28;20548;-65
2022/03/06 11:18:08;;;;;;;21.65;13.07;;;;;;;;;;5011215;28;20034;-65
2022/03/06 11:20:36;;;;;;;25.92;13.93;;;;;;;;;;5011445;28;20026;-66
2022/03/06 11:23:19;;;;;;;21.17;13.52;;;;;;;;;;5010819;28;20401;-65
2022/03/06 11:26:14;;;;;;;56.22;18.95;;;;;;;;;;5010707;28;20505;-66
2022/03/06 11:28:45;;;;;;;24.77;13.73;;;;;;;;;;5010959;28;20402;-65
2022/03/06 11:31:11;;;;;;;26.25;14.20;;;;;;;;;;5010293;28;20499;-65
2022/03/06 11:34:05;;;;;;;24.23;13.82;;;;;;;;;;5011098;28;20045;-66
2022/03/06 11:36:31;;;;;;;22.88;13.18;;;;;;;;;;5010924;28;20022;-66
2022/03/06 11:38:57;;;;;;;26.98;13.57;;;;;;;;;;5007681;28;20041;-65
2022/03/06 11:41:26;;;;;;;23.67;14.20;;;;;;;;;;5008251;28;20030;-67
2022/03/06 11:43:53;;;;;;;22.08;13.55;;;;;;;;;;5009287;28;20064;-68
2022/03/06 11:46:21;;;;;;;25.67;14.40;;;;;;;;;;5010589;28;20065;-66
2022/03/06 11:48:46;;;;;;;27.30;13.68;;;;;;;;;;5009682;28;20026;-66
2022/03/06 11:51:18;;;;;;;25.05;13.55;;;;;;;;;;5010403;28;20026;-66
2022/03/06 11:53:49;;;;;;;27.27;15.60;;;;;;;;;;5010763;28;20512;-66
2022/03/06 11:56:36;;;;;;;26.80;14.85;;;;;;;;;;5010228;28;20491;-66
2022/03/06 11:59:19;;;;;;;25.65;14.05;;;;;;;;;;5009517;28;20037;-66
2022/03/06 12:01:46;;;;;;;24.80;13.90;;;;;;;;;;5009910;28;20076;-70
2022/03/06 12:04:24;;;;;;;25.50;14.55;;;;;;;;;;5009981;28;20025;-67
2022/03/06 12:06:53;;;;;;;25.35;14.18;;;;;;;;;;5010247;28;20621;-70
2022/03/06 12:09:20;;;;;;;27.02;15.27;;;;;;;;;;5020861;28;20034;-66
2022/03/06 12:11:47;;;;;;;20.38;12.95;;;;;;;;;;5019543;28;20030;-66
2022/03/06 12:14:19;;;;;;;21.38;12.68;;;;;;;;;;5019635;28;20037;-66
2022/03/06 12:19:35;;;;;;;18.52;12.35;;;;;;;;;;5019407;28;20086;-66
2022/03/06 12:22:10;;;;;;;21.75;12.82;;;;;;;;;;5019226;28;20222;-67
2022/03/06 12:24:36;;;;;;;22.77;12.65;;;;;;;;;;5020321;28;20450;-67
2022/03/06 12:27:11;;;;;;;22.65;12.43;;;;;;;;;;5020364;28;20388;-66
2022/03/06 12:29:46;;;;;;;20.73;12.65;;;;;;;;;;5020254;28;20303;-66
2022/03/06 12:32:31;;;;;;;22.35;13.00;;;;;;;;;;5019965;28;20033;-66
2022/03/06 12:35:01;;;;;;;23.58;12.27;;;;;;;;;;5019928;28;20034;-66
2022/03/06 12:37:28;;;;;;;23.63;12.40;;;;;;;;;;5020043;28;20056;-67
2022/03/06 12:39:55;;;;;;;21.10;12.43;;;;;;;;;;5019858;28;20137;-69
2022/03/06 12:42:29;;;;;;;21.63;12.35;;;;;;;;;;5020406;28;20034;-66
2022/03/06 12:45:00;;;;;;;23.25;12.10;;;;;;;;;;5019791;28;20025;-67
2022/03/06 12:47:29;;;;;;;19.60;11.52;;;;;;;;;;5019593;28;20108;-70
2022/03/06 12:49:56;;;;;;;20.55;11.60;;;;;;;;;;5013450;28;20031;-72
2022/03/06 12:52:26;;;;;;;23.77;13.63;;;;;;;;;;5018942;28;20088;-67
2022/03/06 12:54:54;;;;;;;20.08;12.40;;;;;;;;;;5020144;28;20029;-66
2022/03/06 12:57:20;;;;;;;25.70;13.85;;;;;;;;;;5019571;28;20068;-67
2022/03/06 12:59:48;;;;;;;21.33;11.93;;;;;;;;;;5020029;28;20026;-69
2022/03/06 13:02:17;;;;;;;23.23;13.05;;;;;;;;;;5019356;28;20085;-66
2022/03/06 13:04:51;;;;;;;23.33;11.80;;;;;;;;;;5019949;28;20026;-67
2022/03/06 13:07:21;;;;;;;21.33;12.90;;;;;;;;;;5019362;28;20072;-69
2022/03/06 13:09:57;;;;;;;22.63;13.13;;;;;;;;;;5022917;28;20056;-66
2022/03/06 13:12:26;;;;;;;23.45;13.23;;;;;;;;;;5019325;28;20022;-66
2022/03/06 13:14:51;;;;;;;23.02;12.95;;;;;;;;;;5019108;28;20031;-65
2022/03/06 13:17:20;;;;;;;19.80;12.27;;;;;;;;;;5023617;28;20026;-68
2022/03/06 13:19:48;;;;;;;22.63;13.38;;;;;;;;;;5023568;28;20094;-67
2022/03/06 13:22:16;;;;;;;20.92;12.63;;;;;;;;;;5023204;28;20136;-66
2022/03/06 13:24:50;;;;;;;21.67;13.02;;;;;;;;;;5023309;28;20040;-67
2022/03/06 13:27:22;;;;;;;20.73;12.50;;;;;;;;;;5023163;28;20029;-68
2022/03/06 13:30:12;;;;;;;21.60;13.20;;;;;;;;;;5023125;28;20034;-66
2022/03/06 13:32:57;;;;;;;21.92;12.43;;;;;;;;;;5022923;28;20269;-67
2022/03/06 13:35:28;;;;;;;24.13;12.25;;;;;;;;;;5023294;28;20046;-65
2022/03/06 13:37:58;;;;;;;21.17;12.48;;;;;;;;;;5021786;28;20232;-66
2022/03/06 13:40:29;;;;;;;26.48;13.48;;;;;;;;;;5021981;28;20360;-67
2022/03/06 13:42:55;;;;;;;24.20;14.23;;;;;;;;;;5020976;28;20030;-70
2022/03/06 13:45:22;;;;;;;22.30;12.80;;;;;;;;;;5021511;28;20273;-66
2022/03/06 13:47:57;;;;;;;23.80;13.07;;;;;;;;;;5021205;28;20034;-67
2022/03/06 13:50:35;;;;;;;22.42;12.35;;;;;;;;;;5021557;28;20032;-67
2022/03/06 13:53:05;;;;;;;20.67;12.02;;;;;;;;;;5020853;28;20056;-67
2022/03/06 13:55:32;;;;;;;20.85;11.80;;;;;;;;;;5022339;28;20030;-67
2022/03/06 13:58:04;;;;;;;24.10;12.77;;;;;;;;;;5022696;28;20033;-66
2022/03/06 14:00:36;;;;;;;21.45;12.07;;;;;;;;;;5022314;28;20037;-67
2022/03/06 14:03:06;;;;;;;19.75;12.35;;;;;;;;;;5022277;28;20563;-67
2022/03/06 14:05:40;;;;;;;24.63;13.77;;;;;;;;;;5022972;28;20022;-66
2022/03/06 14:08:18;;;;;;;22.95;12.55;;;;;;;;;;5023195;28;20114;-67
2022/03/06 14:10:47;;;;;;;24.73;13.10;;;;;;;;;;5027039;28;20025;-67
2022/03/06 14:13:29;;;;;;;23.30;13.27;;;;;;;;;;5022533;28;20026;-68
2022/03/06 14:16:00;;;;;;;25.38;13.95;;;;;;;;;;5022603;28;20025;-65
2022/03/06 14:18:31;;;;;;;25.98;13.52;;;;;;;;;;5022109;28;20089;-67
2022/03/06 14:20:57;;;;;;;23.55;13.05;;;;;;;;;;5022065;28;20037;-68
2022/03/06 14:23:22;;;;;;;25.08;13.90;;;;;;;;;;5022610;28;20068;-68